Terminal Aerodrome Forecast
Issued by NWS Midland/Odessa, TX

Home | Current Version | Previous Version | Text Only | Print | Product List | Glossary On
Versions: 1 2 3 4 5 6 7 8 9 10 11 12
841
FTUS44 KMAF 130520
TAFMAF
TAF
KMAF 130520Z 1306/1406 24007KT P6SM FEW250
     FM140000 29006KT P6SM FEW200=

USA.gov is the U.S. government's official web portal to all federal, state and local government web resources and services.